Time;durP1;ratioP1;P1;durP2;ratioP2;P2;SDS_P1;SDS_P2;PMS_P1;PMS_P2;Temp;Humidity;BMP_temperature;BMP_pressure;BME280_temperature;BME280_humidity;BME280_pressure;Samples;Min_cycle;Max_cycle;Signal;HPM_P1;HPM_P2
2021/07/11 00:02:14;;;;;;;1.93;1.77;;;19.90;99.90;;;;;;4975643;28;20201;-61
2021/07/11 00:04:40;;;;;;;3.73;2.30;;;19.90;99.90;;;;;;4976357;28;20173;-62
2021/07/11 00:07:05;;;;;;;2.80;2.10;;;20.00;99.90;;;;;;4976096;28;20248;-61
2021/07/11 00:09:31;;;;;;;2.30;2.10;;;20.00;99.90;;;;;;4975929;28;20177;-62
2021/07/11 00:11:57;;;;;;;2.37;1.90;;;20.20;99.90;;;;;;4975701;28;20174;-61
2021/07/11 00:14:23;;;;;;;4.00;2.50;;;20.20;99.90;;;;;;4975441;28;20170;-61
2021/07/11 00:16:48;;;;;;;2.23;2.00;;;20.00;99.90;;;;;;4975383;28;20556;-61
2021/07/11 00:19:14;;;;;;;3.20;2.20;;;19.80;99.90;;;;;;4975581;28;20196;-61
2021/07/11 00:21:39;;;;;;;2.50;2.20;;;19.70;99.90;;;;;;4975849;28;20177;-61
2021/07/11 00:24:05;;;;;;;2.23;2.13;;;19.70;99.90;;;;;;4975157;28;20259;-61
2021/07/11 00:26:31;;;;;;;2.90;2.20;;;19.80;99.90;;;;;;4975332;28;20205;-61
2021/07/11 00:28:56;;;;;;;3.03;2.20;;;19.70;99.90;;;;;;4975723;28;20165;-61
2021/07/11 00:31:22;;;;;;;2.33;2.13;;;19.50;99.90;;;;;;4975340;28;20545;-61
2021/07/11 00:33:48;;;;;;;2.30;2.10;;;19.40;99.90;;;;;;4975307;28;20169;-62
2021/07/11 00:36:13;;;;;;;2.93;2.40;;;19.50;99.90;;;;;;4975435;28;20220;-61
2021/07/11 00:38:39;;;;;;;4.00;2.20;;;19.40;99.90;;;;;;4974993;28;20181;-61
2021/07/11 00:41:05;;;;;;;2.27;2.13;;;19.40;99.90;;;;;;4975362;28;20181;-62
2021/07/11 00:43:30;;;;;;;2.33;2.13;;;19.30;99.90;;;;;;4975037;28;20203;-61
2021/07/11 00:45:56;;;;;;;2.20;2.00;;;19.10;99.90;;;;;;4974804;28;20606;-61
2021/07/11 00:48:22;;;;;;;2.33;2.13;;;19.10;99.90;;;;;;4975100;28;20644;-62
2021/07/11 00:50:48;;;;;;;2.80;2.10;;;19.00;99.90;;;;;;4975070;28;20174;-61
2021/07/11 00:53:14;;;;;;;1.97;1.87;;;18.90;99.90;;;;;;4974596;28;20178;-61
2021/07/11 00:55:40;;;;;;;2.17;1.97;;;18.90;99.90;;;;;;4975087;28;20527;-61
2021/07/11 00:58:06;;;;;;;2.67;2.00;;;19.00;99.90;;;;;;4975227;28;20459;-61
2021/07/11 01:00:33;;;;;;;2.63;2.43;;;19.10;99.90;;;;;;4974205;28;20451;-60
2021/07/11 01:03:10;;;;;;;2.20;2.00;;;19.00;99.90;;;;;;4974964;28;20233;-61
2021/07/11 01:05:36;;;;;;;2.40;2.20;;;18.90;99.90;;;;;;4975003;28;20420;-61
2021/07/11 01:08:09;;;;;;;3.13;2.17;;;18.90;99.90;;;;;;4974719;28;20822;-61
2021/07/11 01:10:50;;;;;;;2.40;2.20;;;18.80;99.90;;;;;;4961990;28;20409;-61
2021/07/11 01:13:20;;;;;;;2.67;2.47;;;18.70;99.90;;;;;;4955576;28;20394;-62
2021/07/11 01:15:48;;;;;;;2.73;2.37;;;18.90;99.90;;;;;;4955415;28;20832;-61
2021/07/11 01:18:18;;;;;;;2.47;2.27;;;19.00;99.90;;;;;;4955332;28;20907;-61
2021/07/11 01:20:49;;;;;;;2.83;2.30;;;19.10;99.90;;;;;;4955282;28;20892;-61
2021/07/11 01:23:44;;;;;;;2.30;2.10;;;19.20;99.90;;;;;;4955274;28;20624;-61
2021/07/11 01:26:12;;;;;;;2.30;2.10;;;19.10;99.90;;;;;;4956264;23;20502;-67
2021/07/11 01:28:38;;;;;;;2.90;1.87;;;18.80;99.90;;;;;;4985283;23;20630;-65
2021/07/11 01:31:05;;;;;;;3.10;2.80;;;19.00;99.90;;;;;;4994249;28;20404;-66
2021/07/11 01:33:32;;;;;;;2.87;2.30;;;18.90;99.90;;;;;;4993879;28;20810;-65
2021/07/11 01:35:59;;;;;;;2.17;2.00;;;19.00;99.90;;;;;;4986856;28;20432;-65
2021/07/11 01:38:26;;;;;;;2.60;2.00;;;18.90;99.90;;;;;;4962505;28;20506;-65
2021/07/11 01:40:53;;;;;;;2.27;1.80;;;18.90;99.90;;;;;;4955408;29;20401;-65
2021/07/11 01:43:21;;;;;;;2.73;2.20;;;18.90;99.90;;;;;;4955112;29;20812;-65
2021/07/11 01:45:52;;;;;;;2.10;1.90;;;19.00;99.90;;;;;;4955051;28;20501;-65
2021/07/11 01:48:18;;;;;;;2.30;2.10;;;19.00;99.90;;;;;;4955517;28;20433;-65
2021/07/11 01:50:50;;;;;;;2.23;2.03;;;19.10;99.90;;;;;;4954742;29;20413;-65
2021/07/11 01:53:16;;;;;;;2.90;2.40;;;19.00;99.90;;;;;;4954508;28;20541;-65
2021/07/11 01:55:42;;;;;;;2.83;2.00;;;19.20;99.90;;;;;;4955420;29;20520;-66
2021/07/11 01:58:07;;;;;;;2.50;2.00;;;19.30;99.90;;;;;;4954980;28;20457;-66
2021/07/11 02:00:33;;;;;;;2.70;2.33;;;19.10;99.90;;;;;;4954992;29;20197;-66
2021/07/11 02:02:59;;;;;;;2.40;2.20;;;19.20;99.90;;;;;;4954897;29;20244;-66
2021/07/11 02:05:24;;;;;;;2.63;1.90;;;19.00;99.90;;;;;;4956774;28;20240;-66
2021/07/11 02:07:50;;;;;;;3.03;2.50;;;19.10;99.90;;;;;;4958409;28;20192;-66
2021/07/11 02:10:17;;;;;;;4.73;2.17;;;19.00;99.90;;;;;;4958789;29;20221;-66
2021/07/11 02:12:54;;;;;;;1.90;1.77;;;19.00;99.90;;;;;;4958944;29;20189;-66
2021/07/11 02:15:22;;;;;;;2.77;2.03;;;19.00;99.90;;;;;;4959030;29;20427;-66
2021/07/11 02:17:50;;;;;;;2.53;1.97;;;19.00;99.90;;;;;;4958525;28;20429;-66
2021/07/11 02:20:17;;;;;;;2.37;2.17;;;18.90;99.90;;;;;;4957939;28;20425;-66
2021/07/11 02:22:45;;;;;;;2.40;2.10;;;18.90;99.90;;;;;;4958198;29;20441;-66
2021/07/11 02:25:15;;;;;;;2.23;2.10;;;19.00;99.90;;;;;;4958464;29;20962;-66
2021/07/11 02:27:46;;;;;;;3.70;2.07;;;19.20;99.90;;;;;;4958297;28;20504;-66
2021/07/11 02:30:17;;;;;;;2.10;1.90;;;19.10;99.90;;;;;;4958646;29;20429;-66
2021/07/11 02:32:47;;;;;;;2.47;2.10;;;19.30;99.90;;;;;;4958531;29;20401;-66
2021/07/11 02:35:13;;;;;;;3.40;2.33;;;19.40;99.90;;;;;;4958058;29;20409;-66
2021/07/11 02:37:46;;;;;;;2.80;2.30;;;19.40;99.90;;;;;;4958043;28;20465;-66
2021/07/11 02:40:12;;;;;;;2.47;1.90;;;19.40;99.90;;;;;;4958486;29;20397;-66
2021/07/11 02:42:38;;;;;;;1.97;1.67;;;19.20;99.90;;;;;;4958065;28;20872;-65
2021/07/11 02:45:07;;;;;;;2.77;2.27;;;19.20;99.90;;;;;;4958045;29;20409;-64
2021/07/11 02:47:37;;;;;;;2.17;1.97;;;19.10;99.90;;;;;;4958147;28;20433;-64
2021/07/11 02:50:05;;;;;;;4.40;2.40;;;19.20;99.90;;;;;;4957914;28;20883;-64
2021/07/11 02:52:31;;;;;;;2.80;2.17;;;19.30;99.90;;;;;;4957529;29;20413;-64
2021/07/11 02:55:00;;;;;;;2.30;2.10;;;19.00;99.90;;;;;;4955844;28;20425;-65
2021/07/11 02:57:30;;;;;;;3.00;1.97;;;18.90;99.90;;;;;;4958028;28;20471;-65
2021/07/11 02:59:57;;;;;;;2.23;2.03;;;19.10;99.90;;;;;;4957713;29;20401;-65
2021/07/11 03:02:25;;;;;;;2.60;2.40;;;19.10;99.90;;;;;;4956675;28;20532;-65
2021/07/11 03:04:52;;;;;;;2.30;2.10;;;19.10;99.90;;;;;;4968934;28;20440;-65
2021/07/11 03:07:19;;;;;;;2.13;1.93;;;19.20;99.90;;;;;;4977102;28;20421;-65
2021/07/11 03:09:44;;;;;;;2.53;1.80;;;19.10;99.90;;;;;;4977182;28;20893;-65
2021/07/11 03:12:11;;;;;;;3.77;2.67;;;19.10;99.90;;;;;;4976876;28;20454;-65
2021/07/11 03:14:38;;;;;;;5.90;2.33;;;19.10;99.90;;;;;;4977386;28;20216;-65
2021/07/11 03:17:04;;;;;;;2.47;2.23;;;19.00;99.90;;;;;;4976131;28;20462;-66
2021/07/11 03:19:35;;;;;;;2.17;2.00;;;18.90;99.90;;;;;;4977015;28;20434;-65
2021/07/11 03:22:01;;;;;;;4.07;2.07;;;19.00;99.90;;;;;;4977005;28;20391;-65
2021/07/11 03:24:30;;;;;;;2.40;2.20;;;19.00;99.90;;;;;;4976582;28;20413;-66
2021/07/11 03:26:57;;;;;;;2.30;1.73;;;19.10;99.90;;;;;;4976540;28;20405;-65
2021/07/11 03:29:38;;;;;;;2.03;1.93;;;18.70;99.90;;;;;;4976508;28;20440;-65
2021/07/11 03:32:06;;;;;;;3.07;1.87;;;18.80;99.90;;;;;;4962209;28;20756;-65
2021/07/11 03:34:33;;;;;;;1.90;1.80;;;18.80;99.90;;;;;;4957723;28;20406;-65
2021/07/11 03:37:07;;;;;;;2.53;2.33;;;18.70;99.90;;;;;;4957065;28;20902;-65
2021/07/11 03:39:38;;;;;;;2.30;2.10;;;18.80;99.90;;;;;;4957433;28;20378;-65
2021/07/11 03:42:06;;;;;;;1.90;1.80;;;18.90;99.90;;;;;;4957140;28;20413;-65
2021/07/11 03:44:33;;;;;;;2.10;1.97;;;19.00;99.90;;;;;;4957185;28;20762;-65
2021/07/11 03:47:03;;;;;;;4.53;2.23;;;18.90;99.90;;;;;;4956316;28;20445;-65
2021/07/11 03:49:31;;;;;;;3.10;1.90;;;18.80;99.90;;;;;;4956721;28;20410;-65
2021/07/11 03:52:03;;;;;;;2.20;2.07;;;18.80;99.90;;;;;;4956861;28;20453;-65
2021/07/11 03:54:32;;;;;;;2.20;2.00;;;19.00;99.90;;;;;;4956822;28;20401;-65
2021/07/11 03:56:59;;;;;;;2.20;1.80;;;19.10;99.90;;;;;;4956707;28;20410;-65
2021/07/11 03:59:25;;;;;;;2.03;1.93;;;19.10;99.90;;;;;;4956754;28;20489;-65
2021/07/11 04:01:52;;;;;;;2.40;2.20;;;19.10;99.90;;;;;;4968444;28;20409;-66
2021/07/11 04:04:21;;;;;;;2.93;2.23;;;19.20;99.90;;;;;;4975875;28;20506;-65
2021/07/11 04:06:49;;;;;;;3.23;2.00;;;19.10;99.90;;;;;;4976960;28;20885;-65
2021/07/11 04:09:18;;;;;;;2.27;2.10;;;19.20;99.90;;;;;;4975567;28;20423;-65
2021/07/11 04:11:44;;;;;;;3.47;2.20;;;19.30;99.90;;;;;;4975762;28;20499;-65
2021/07/11 04:14:10;;;;;;;1.93;1.60;;;19.30;99.90;;;;;;4975953;28;20404;-65
2021/07/11 04:16:36;;;;;;;2.50;2.30;;;19.30;99.90;;;;;;4975449;28;20416;-65
2021/07/11 04:19:03;;;;;;;3.37;2.07;;;19.30;99.90;;;;;;4973656;28;20208;-65
2021/07/11 04:21:31;;;;;;;2.23;2.10;;;19.30;99.90;;;;;;4964836;28;20440;-65
2021/07/11 04:23:57;;;;;;;2.70;2.47;;;19.20;99.90;;;;;;4954983;29;20593;-65
2021/07/11 04:26:31;;;;;;;4.03;2.80;;;19.30;99.90;;;;;;4956009;29;20406;-65
2021/07/11 04:28:57;;;;;;;3.70;2.47;;;19.20;99.90;;;;;;4955448;28;20457;-65
2021/07/11 04:31:22;;;;;;;2.43;2.23;;;19.10;99.90;;;;;;4955711;28;20500;-65
2021/07/11 04:33:49;;;;;;;2.30;2.10;;;19.00;99.90;;;;;;4955776;28;20178;-65
2021/07/11 04:36:14;;;;;;;3.03;2.20;;;19.10;99.90;;;;;;4956019;29;20166;-65
2021/07/11 04:38:40;;;;;;;2.23;2.10;;;19.00;99.90;;;;;;4956002;28;20808;-65
2021/07/11 04:41:09;;;;;;;2.30;2.10;;;19.10;99.90;;;;;;4955783;29;20170;-65
2021/07/11 04:43:35;;;;;;;2.47;2.27;;;19.20;99.90;;;;;;4955964;29;20445;-65
2021/07/11 04:46:00;;;;;;;2.23;2.07;;;19.30;99.90;;;;;;4955881;29;20540;-65
2021/07/11 04:48:26;;;;;;;2.10;1.80;;;19.30;99.90;;;;;;4955710;28;20512;-65
2021/07/11 04:50:52;;;;;;;3.40;2.83;;;19.20;99.90;;;;;;4956327;29;20174;-65
2021/07/11 04:53:18;;;;;;;6.53;2.50;;;19.40;99.90;;;;;;4956574;29;20402;-65
2021/07/11 04:55:46;;;;;;;2.23;1.90;;;19.50;99.90;;;;;;4955538;29;20174;-65
2021/07/11 04:58:12;;;;;;;3.07;2.40;;;19.50;99.90;;;;;;4956412;28;20194;-65
2021/07/11 05:00:39;;;;;;;2.47;2.13;;;19.40;99.90;;;;;;4955606;29;20425;-65
2021/07/11 05:03:05;;;;;;;4.40;2.10;;;19.50;99.90;;;;;;4955119;28;20456;-65
2021/07/11 05:05:30;;;;;;;3.70;2.47;;;19.70;99.90;;;;;;4955498;29;20406;-65
2021/07/11 05:07:56;;;;;;;2.40;2.20;;;19.70;99.90;;;;;;4955437;28;20193;-65
2021/07/11 05:10:21;;;;;;;2.53;2.23;;;19.70;99.90;;;;;;4970277;28;20252;-66
2021/07/11 05:12:47;;;;;;;3.13;2.17;;;19.80;99.90;;;;;;4974742;28;20220;-64
2021/07/11 05:15:12;;;;;;;2.10;2.00;;;19.70;99.90;;;;;;4974670;28;20174;-65
2021/07/11 05:17:38;;;;;;;2.80;2.20;;;19.60;99.90;;;;;;4974630;28;20678;-65
2021/07/11 05:20:06;;;;;;;1.97;1.87;;;19.60;99.90;;;;;;4974639;28;20181;-65
2021/07/11 05:22:32;;;;;;;2.33;2.13;;;19.70;99.90;;;;;;4974975;28;20236;-65
2021/07/11 05:24:57;;;;;;;2.60;2.40;;;19.60;99.90;;;;;;4974710;28;20934;-64
2021/07/11 05:27:23;;;;;;;2.17;2.03;;;19.20;99.90;;;;;;4974483;28;20355;-65
2021/07/11 05:29:49;;;;;;;2.30;2.17;;;19.10;99.90;;;;;;4974815;28;20157;-65
2021/07/11 05:32:14;;;;;;;4.60;2.37;;;19.20;99.90;;;;;;4974189;28;20165;-65
2021/07/11 05:34:40;;;;;;;3.20;2.50;;;19.30;99.90;;;;;;4958572;28;20178;-65
2021/07/11 05:37:06;;;;;;;2.53;2.33;;;19.30;99.90;;;;;;4955146;29;20662;-66
2021/07/11 05:39:31;;;;;;;2.73;2.33;;;19.30;99.90;;;;;;4954257;28;20162;-63
2021/07/11 05:41:57;;;;;;;2.37;2.17;;;19.30;99.90;;;;;;4955263;29;20595;-65
2021/07/11 05:44:22;;;;;;;4.30;2.20;;;19.50;99.90;;;;;;4955237;29;20233;-65
2021/07/11 05:46:48;;;;;;;2.40;2.17;;;19.90;99.90;;;;;;4954743;29;20584;-65
2021/07/11 05:49:14;;;;;;;2.80;1.97;;;20.10;99.90;;;;;;4954959;28;20190;-65
2021/07/11 05:51:39;;;;;;;2.57;2.37;;;20.10;99.90;;;;;;4955032;29;20174;-65
2021/07/11 05:54:05;;;;;;;4.90;2.50;;;20.00;99.90;;;;;;4955010;29;20212;-65
2021/07/11 05:56:30;;;;;;;3.13;2.57;;;20.20;99.90;;;;;;4954766;29;20189;-65
2021/07/11 05:58:56;;;;;;;3.83;2.20;;;20.20;99.90;;;;;;4955204;29;20225;-65
2021/07/11 06:01:22;;;;;;;2.13;1.93;;;20.10;99.90;;;;;;4954855;29;20202;-65
2021/07/11 06:03:48;;;;;;;3.13;2.83;;;20.10;99.90;;;;;;4963960;28;20205;-65
2021/07/11 06:06:13;;;;;;;2.30;2.10;;;19.90;99.90;;;;;;4974495;28;20427;-65
2021/07/11 06:08:39;;;;;;;3.00;2.23;;;19.80;99.90;;;;;;4974022;28;20185;-65
2021/07/11 06:11:04;;;;;;;3.43;2.07;;;19.90;99.90;;;;;;4974174;28;20209;-65
2021/07/11 06:13:30;;;;;;;2.53;2.33;;;20.10;99.90;;;;;;4974330;28;20193;-66
2021/07/11 06:15:55;;;;;;;2.40;2.20;;;20.30;99.90;;;;;;4974088;28;20180;-65
2021/07/11 06:18:21;;;;;;;2.00;1.80;;;20.10;99.90;;;;;;4973688;28;20601;-65
2021/07/11 06:20:47;;;;;;;3.00;2.70;;;20.40;99.90;;;;;;4974208;28;20187;-65
2021/07/11 06:23:12;;;;;;;4.53;2.30;;;20.50;99.90;;;;;;4974152;28;20224;-66
2021/07/11 06:25:38;;;;;;;2.70;2.47;;;20.30;99.90;;;;;;4974010;28;20536;-65
2021/07/11 06:28:04;;;;;;;2.10;2.00;;;20.50;99.90;;;;;;4973671;28;20292;-65
2021/07/11 06:30:30;;;;;;;2.33;2.13;;;20.60;99.90;;;;;;4974182;28;20174;-65
2021/07/11 06:32:55;;;;;;;2.00;1.80;;;20.70;99.90;;;;;;4973201;28;20416;-65
2021/07/11 06:35:23;;;;;;;2.33;2.17;;;20.70;99.90;;;;;;4973791;28;20174;-65
2021/07/11 06:37:50;;;;;;;2.77;2.57;;;20.60;99.90;;;;;;4973640;28;20202;-65
2021/07/11 06:40:20;;;;;;;3.40;2.63;;;20.60;99.90;;;;;;4973830;28;20424;-65
2021/07/11 06:42:46;;;;;;;2.33;2.13;;;20.60;99.90;;;;;;4973933;28;20444;-65
2021/07/11 06:45:13;;;;;;;1.90;1.80;;;20.70;99.90;;;;;;4973787;28;20405;-66
2021/07/11 06:47:40;;;;;;;2.17;1.80;;;20.90;99.90;;;;;;4973684;28;20201;-65
2021/07/11 06:50:08;;;;;;;2.33;2.13;;;21.00;99.90;;;;;;4974141;28;20463;-66
2021/07/11 06:52:34;;;;;;;4.00;2.27;;;21.00;99.90;;;;;;4976545;28;20929;-65
2021/07/11 06:55:05;;;;;;;2.93;2.37;;;20.90;99.90;;;;;;4977111;28;20413;-65
2021/07/11 06:57:30;;;;;;;3.73;2.20;;;20.70;99.90;;;;;;4977607;28;20435;-66
2021/07/11 06:59:56;;;;;;;3.77;2.20;;;20.60;99.90;;;;;;4977383;28;20416;-65
2021/07/11 07:02:22;;;;;;;2.43;2.23;;;20.70;99.90;;;;;;4977530;28;20232;-65
2021/07/11 07:04:48;;;;;;;4.27;2.60;;;20.70;99.90;;;;;;4976842;28;20590;-65
2021/07/11 07:07:14;;;;;;;2.80;2.47;;;20.80;99.90;;;;;;4977133;28;20519;-65
2021/07/11 07:09:39;;;;;;;2.40;2.13;;;20.80;99.90;;;;;;4977119;28;20977;-65
2021/07/11 07:12:05;;;;;;;3.93;2.00;;;20.90;99.90;;;;;;4973670;28;20509;-65
2021/07/11 07:14:31;;;;;;;3.10;2.30;;;20.70;99.90;;;;;;4968276;28;20177;-65
2021/07/11 07:16:57;;;;;;;3.03;2.60;;;20.60;99.90;;;;;;4976158;28;20421;-65
2021/07/11 07:19:22;;;;;;;2.33;2.10;;;20.60;99.90;;;;;;4976885;28;20181;-65
2021/07/11 07:21:48;;;;;;;2.30;2.10;;;20.60;99.90;;;;;;4976812;28;20201;-65
2021/07/11 07:24:14;;;;;;;2.50;2.30;;;20.80;99.90;;;;;;4976829;28;20661;-65
2021/07/11 07:26:40;;;;;;;2.87;2.23;;;20.80;99.90;;;;;;4976679;28;20642;-64
2021/07/11 07:29:06;;;;;;;2.07;1.97;;;20.80;99.90;;;;;;4987554;23;20647;-62
2021/07/11 07:31:31;;;;;;;2.30;2.10;;;21.10;99.90;;;;;;4956907;29;20473;-60
2021/07/11 07:33:57;;;;;;;3.87;2.37;;;21.20;99.90;;;;;;4954814;29;20178;-60
2021/07/11 07:36:23;;;;;;;2.10;2.00;;;21.20;99.90;;;;;;4957202;29;20170;-60
2021/07/11 07:38:48;;;;;;;2.37;2.13;;;21.10;99.90;;;;;;4957122;28;20329;-60
2021/07/11 07:41:14;;;;;;;2.40;2.17;;;21.20;99.90;;;;;;4954436;29;20543;-61
2021/07/11 07:43:40;;;;;;;1.63;1.53;;;21.40;99.90;;;;;;4937723;29;20285;-60
2021/07/11 07:46:05;;;;;;;2.83;2.53;;;21.70;99.90;;;;;;4937888;29;20178;-60
2021/07/11 07:48:31;;;;;;;2.53;1.93;;;21.90;99.90;;;;;;4937901;29;20565;-60
2021/07/11 07:50:58;;;;;;;2.20;2.00;;;21.90;99.90;;;;;;4943584;29;20170;-60
2021/07/11 07:53:24;;;;;;;2.33;2.13;;;22.10;99.90;;;;;;4954640;29;20174;-60
2021/07/11 07:55:50;;;;;;;2.00;1.80;;;21.90;99.90;;;;;;4957794;28;20418;-62
2021/07/11 07:58:15;;;;;;;2.53;1.80;;;22.00;99.90;;;;;;4956396;28;20456;-60
2021/07/11 08:00:42;;;;;;;2.50;2.30;;;22.20;99.90;;;;;;4959879;29;20174;-60
2021/07/11 08:03:07;;;;;;;1.70;1.60;;;22.00;99.90;;;;;;4956808;28;20218;-60
2021/07/11 08:05:33;;;;;;;2.13;1.93;;;21.70;99.90;;;;;;4957375;29;20454;-62
2021/07/11 08:07:59;;;;;;;2.43;2.17;;;21.60;99.90;;;;;;4956630;28;20190;-59
2021/07/11 08:10:24;;;;;;;2.87;2.43;;;21.50;99.90;;;;;;4956441;29;20457;-59
2021/07/11 08:12:50;;;;;;;3.00;2.50;;;21.60;99.90;;;;;;4956647;29;20253;-60
2021/07/11 08:15:16;;;;;;;2.30;2.10;;;21.50;99.90;;;;;;4956501;29;20170;-60
2021/07/11 08:17:47;;;;;;;4.40;2.00;;;21.40;99.90;;;;;;4956068;28;20637;-60
2021/07/11 08:20:14;;;;;;;4.23;2.40;;;21.50;99.90;;;;;;4956467;29;20394;-61
2021/07/11 08:22:40;;;;;;;2.10;1.90;;;21.30;99.90;;;;;;4956417;29;20441;-60
2021/07/11 08:25:08;;;;;;;4.10;1.70;;;21.30;99.90;;;;;;4956226;29;20413;-63
2021/07/11 08:27:39;;;;;;;2.57;2.27;;;21.50;99.90;;;;;;4955780;28;20588;-58
2021/07/11 08:30:07;;;;;;;1.87;1.77;;;21.80;99.90;;;;;;4956173;29;20417;-62
2021/07/11 08:32:33;;;;;;;2.17;1.97;;;21.90;99.90;;;;;;4955494;29;20445;-60
2021/07/11 08:34:58;;;;;;;1.63;1.53;;;22.10;99.90;;;;;;4956172;29;20425;-60
2021/07/11 08:37:24;;;;;;;2.20;1.83;;;22.30;99.90;;;;;;4956794;29;20261;-60
2021/07/11 08:39:50;;;;;;;1.40;1.30;;;22.20;99.90;;;;;;4955866;28;20780;-60
2021/07/11 08:42:19;;;;;;;2.00;1.80;;;22.30;99.90;;;;;;4953060;29;20193;-61
2021/07/11 08:44:44;;;;;;;1.93;1.83;;;22.40;99.90;;;;;;4947031;29;20181;-60
2021/07/11 08:47:10;;;;;;;2.37;2.17;;;22.30;99.90;;;;;;4955744;28;20418;-59
2021/07/11 08:49:36;;;;;;;1.73;1.63;;;22.10;99.90;;;;;;4955702;29;20182;-62
2021/07/11 08:52:03;;;;;;;2.63;1.87;;;22.00;99.90;;;;;;4955193;28;20832;-62
2021/07/11 08:54:29;;;;;;;1.70;1.60;;;21.80;99.90;;;;;;4955118;28;20543;-62
2021/07/11 08:56:59;;;;;;;2.80;2.07;;;21.70;99.90;;;;;;4955876;29;20406;-61
2021/07/11 08:59:27;;;;;;;3.43;2.00;;;21.70;99.90;;;;;;4955022;28;20209;-62
2021/07/11 09:01:53;;;;;;;1.83;1.73;;;21.70;99.90;;;;;;4955556;28;20410;-62
2021/07/11 09:04:19;;;;;;;1.73;1.63;;;21.70;99.90;;;;;;4955768;29;20914;-62
2021/07/11 09:06:47;;;;;;;2.33;2.00;;;21.70;99.90;;;;;;4955629;29;20480;-62
2021/07/11 09:09:29;;;;;;;1.80;1.70;;;21.70;99.90;;;;;;4943155;29;20245;-62
2021/07/11 09:12:03;;;;;;;1.90;1.80;;;21.60;99.90;;;;;;4936644;29;20399;-62
2021/07/11 09:14:32;;;;;;;2.30;2.10;;;21.40;99.90;;;;;;4935839;29;20406;-62
2021/07/11 09:16:59;;;;;;;2.00;1.63;;;21.60;99.90;;;;;;4936247;29;20757;-63
2021/07/11 09:19:30;;;;;;;2.37;2.00;;;21.50;99.90;;;;;;4936459;29;20439;-62
2021/07/11 09:22:00;;;;;;;2.17;1.97;;;21.60;99.90;;;;;;4936455;29;20459;-62
2021/07/11 09:24:26;;;;;;;3.57;2.27;;;21.60;99.90;;;;;;4936171;29;20465;-62
2021/07/11 09:26:55;;;;;;;3.13;2.10;;;21.50;99.90;;;;;;4936340;29;20449;-62
2021/07/11 09:29:40;;;;;;;2.17;1.73;;;21.60;99.90;;;;;;4935860;29;20470;-62
2021/07/11 09:32:07;;;;;;;2.60;1.80;;;21.80;99.90;;;;;;4935977;29;20446;-62
2021/07/11 09:34:34;;;;;;;2.50;2.30;;;21.70;99.90;;;;;;4936279;29;20422;-62
2021/07/11 09:37:13;;;;;;;2.60;2.17;;;22.00;99.90;;;;;;4936011;29;20407;-61
2021/07/11 09:39:53;;;;;;;2.40;2.20;;;22.50;99.90;;;;;;4935921;29;20422;-61
2021/07/11 09:42:31;;;;;;;2.60;2.17;;;22.60;99.90;;;;;;4936091;29;20414;-61
2021/07/11 09:44:58;;;;;;;2.57;1.90;;;22.90;99.90;;;;;;4935821;29;20390;-61
2021/07/11 09:47:26;;;;;;;3.10;2.10;;;22.90;99.90;;;;;;4936156;29;20414;-61
2021/07/11 09:50:10;;;;;;;2.20;2.00;;;23.10;99.90;;;;;;4935962;29;20430;-63
2021/07/11 09:52:40;;;;;;;2.10;1.90;;;23.00;99.90;;;;;;4936466;29;20457;-63
2021/07/11 09:55:21;;;;;;;2.10;1.90;;;23.00;99.90;;;;;;4936034;29;20907;-62
2021/07/11 09:57:55;;;;;;;2.33;1.80;;;23.00;99.90;;;;;;4936192;29;20398;-62
2021/07/11 10:00:27;;;;;;;2.17;1.70;;;23.20;99.90;;;;;;4947665;29;20463;-62
2021/07/11 10:02:57;;;;;;;1.73;1.63;;;23.30;99.90;;;;;;4954999;29;20480;-63
2021/07/11 10:05:24;;;;;;;2.07;1.83;;;23.20;99.90;;;;;;4955499;29;20410;-63
2021/07/11 10:07:51;;;;;;;1.97;1.77;;;23.60;99.90;;;;;;4955045;28;20779;-63
2021/07/11 10:10:22;;;;;;;2.30;2.10;;;23.80;99.90;;;;;;4955052;29;20402;-62
2021/07/11 10:12:49;;;;;;;2.20;1.80;;;23.80;99.90;;;;;;4955338;29;20864;-62
2021/07/11 10:15:17;;;;;;;3.17;1.80;;;23.70;99.90;;;;;;4954832;28;20410;-62
2021/07/11 10:17:48;;;;;;;2.80;2.00;;;23.30;99.90;;;;;;4954869;28;20416;-62
2021/07/11 10:20:15;;;;;;;2.37;2.10;;;23.30;99.90;;;;;;4955201;29;20457;-62
2021/07/11 10:22:55;;;;;;;2.17;1.80;;;23.30;99.90;;;;;;4954786;29;20452;-61
2021/07/11 10:25:24;;;;;;;4.03;1.77;;;23.70;99.90;;;;;;4955008;28;20418;-62
2021/07/11 10:28:15;;;;;;;3.07;2.03;;;23.80;99.90;;;;;;4958887;28;20564;-62
2021/07/11 10:30:44;;;;;;;2.33;1.70;;;24.00;99.90;;;;;;4959044;29;20449;-62
2021/07/11 10:33:15;;;;;;;2.07;1.90;;;24.00;99.90;;;;;;4955303;29;20404;-62
2021/07/11 10:36:03;;;;;;;2.97;2.50;;;23.80;99.90;;;;;;4939272;29;20414;-62
2021/07/11 10:38:32;;;;;;;3.37;2.27;;;23.60;99.90;;;;;;4939617;29;20802;-62
2021/07/11 10:41:14;;;;;;;2.07;1.90;;;23.60;99.90;;;;;;4939293;29;20457;-62
2021/07/11 10:43:42;;;;;;;2.03;1.87;;;23.70;99.90;;;;;;4939000;29;20820;-62
2021/07/11 10:46:07;;;;;;;2.53;2.30;;;23.70;99.90;;;;;;4939099;29;20410;-62
2021/07/11 10:48:33;;;;;;;3.07;2.33;;;23.60;99.90;;;;;;4938577;29;20422;-61
2021/07/11 10:50:59;;;;;;;2.13;1.93;;;23.40;99.90;;;;;;4938853;29;20173;-62
2021/07/11 10:53:33;;;;;;;3.70;1.87;;;23.40;99.90;;;;;;4939008;29;20615;-62
2021/07/11 10:55:58;;;;;;;2.50;2.30;;;23.40;99.90;;;;;;4939049;29;20158;-62
2021/07/11 10:58:24;;;;;;;3.90;2.00;;;23.50;99.90;;;;;;4938247;29;20440;-62
2021/07/11 11:00:50;;;;;;;2.63;2.13;;;23.50;99.90;;;;;;4939139;29;20519;-62
2021/07/11 11:03:21;;;;;;;2.33;1.80;;;23.70;99.90;;;;;;4938366;29;20202;-62
2021/07/11 11:05:48;;;;;;;2.20;2.00;;;23.60;99.90;;;;;;4939030;29;20198;-62
2021/07/11 11:08:23;;;;;;;2.30;2.10;;;23.00;99.90;;;;;;4955942;28;20434;-61
2021/07/11 11:10:52;;;;;;;2.20;1.90;;;23.20;99.90;;;;;;4957830;28;20386;-61
2021/07/11 11:13:19;;;;;;;2.17;1.97;;;23.20;99.90;;;;;;4957383;28;20424;-61
2021/07/11 11:15:51;;;;;;;3.40;2.37;;;23.30;99.90;;;;;;4957787;28;20429;-62
2021/07/11 11:18:33;;;;;;;2.60;1.83;;;23.20;99.90;;;;;;4957488;28;20421;-62
2021/07/11 11:21:01;;;;;;;3.10;2.57;;;23.10;99.90;;;;;;4957817;28;20409;-61
2021/07/11 11:23:31;;;;;;;2.43;1.87;;;22.90;99.90;;;;;;4956101;29;20881;-62
2021/07/11 11:25:57;;;;;;;2.70;1.90;;;22.70;99.90;;;;;;4957638;28;20806;-62
2021/07/11 11:28:26;;;;;;;2.63;1.93;;;22.80;99.90;;;;;;4956966;29;20540;-61
2021/07/11 11:30:52;;;;;;;2.60;2.27;;;22.80;99.90;;;;;;4957332;29;20174;-61
2021/07/11 11:33:18;;;;;;;1.53;1.43;;;22.70;99.90;;;;;;4957116;28;20417;-62
2021/07/11 11:35:46;;;;;;;1.77;1.50;;;23.10;99.90;;;;;;4951634;29;20178;-61
2021/07/11 11:38:12;;;;;;;2.43;2.10;;;23.50;99.90;;;;;;4945842;28;20301;-61
2021/07/11 11:40:37;;;;;;;2.17;1.70;;;23.70;99.90;;;;;;4938121;29;21016;-61
2021/07/11 11:43:06;;;;;;;1.53;1.43;;;23.60;99.90;;;;;;4937920;29;20233;-61
2021/07/11 11:45:33;;;;;;;1.83;1.70;;;23.80;99.90;;;;;;4938142;29;20259;-61
2021/07/11 11:48:11;;;;;;;1.67;1.57;;;24.20;99.90;;;;;;4937523;29;20497;-62
2021/07/11 11:50:42;;;;;;;1.70;1.60;;;24.30;99.90;;;;;;4938024;29;20541;-61
2021/07/11 11:53:13;;;;;;;3.33;1.70;;;24.60;99.90;;;;;;4938066;29;20418;-61
2021/07/11 11:55:59;;;;;;;1.70;1.60;;;24.90;99.80;;;;;;4937908;29;20422;-61
2021/07/11 11:58:26;;;;;;;2.67;1.80;;;25.20;99.90;;;;;;4935893;29;20818;-61
2021/07/11 12:01:06;;;;;;;2.23;1.57;;;25.20;99.50;;;;;;4937704;29;20995;-61
2021/07/11 12:03:36;;;;;;;2.30;1.50;;;25.00;99.30;;;;;;4942499;29;20465;-62
2021/07/11 12:06:06;;;;;;;2.20;1.70;;;25.60;99.30;;;;;;4956972;29;20524;-63
2021/07/11 12:08:43;;;;;;;2.37;1.90;;;25.90;98.70;;;;;;4956685;28;20448;-62
2021/07/11 12:11:10;;;;;;;2.17;1.70;;;25.70;98.10;;;;;;4956502;29;21014;-61
2021/07/11 12:13:36;;;;;;;1.70;1.60;;;25.80;98.60;;;;;;4956332;28;20447;-62
2021/07/11 12:16:07;;;;;;;3.60;2.10;;;25.60;98.30;;;;;;4957510;29;20814;-61
2021/07/11 12:18:49;;;;;;;2.13;1.73;;;25.30;98.30;;;;;;4956054;28;20445;-62
2021/07/11 12:21:30;;;;;;;1.90;1.80;;;25.30;98.70;;;;;;4956682;29;20436;-62
2021/07/11 12:24:10;;;;;;;2.13;1.93;;;25.60;98.70;;;;;;4956610;29;20445;-62
2021/07/11 12:26:42;;;;;;;2.80;1.50;;;26.00;98.20;;;;;;4957178;29;20402;-61
2021/07/11 12:29:09;;;;;;;1.90;1.80;;;26.40;97.00;;;;;;4956081;28;20445;-61
2021/07/11 12:31:35;;;;;;;1.47;1.37;;;26.90;96.60;;;;;;4956782;29;20406;-60
2021/07/11 12:34:11;;;;;;;2.00;1.80;;;28.10;96.10;;;;;;4947222;29;20434;-62
2021/07/11 12:36:40;;;;;;;1.87;1.77;;;29.80;93.80;;;;;;4937213;29;20387;-61
2021/07/11 12:39:20;;;;;;;1.90;1.60;;;31.60;89.70;;;;;;4937075;29;20438;-62
2021/07/11 12:41:46;;;;;;;2.60;1.63;;;31.60;87.00;;;;;;4936412;29;20446;-62
2021/07/11 12:44:14;;;;;;;2.67;1.57;;;30.90;87.10;;;;;;4936121;29;20458;-63
2021/07/11 12:46:40;;;;;;;2.20;1.93;;;29.50;88.90;;;;;;4937017;29;20182;-62
2021/07/11 12:49:14;;;;;;;1.80;1.70;;;29.60;89.10;;;;;;4936024;29;20485;-63
2021/07/11 12:51:41;;;;;;;3.00;2.03;;;28.40;90.70;;;;;;4937102;29;20549;-62
2021/07/11 12:54:09;;;;;;;1.90;1.80;;;27.00;92.70;;;;;;4936745;29;20937;-62